Greater Peoria Regional Airport
KPIA : now visible

Airfield :











YOU CAN JOIN US ON...

 
LOGIN :

Register | Disclaimer

   EN    FR    IT 

 









Legend :    VFR   Marginal VFR   IFR   Intensive IFR   Very Intensive IFR
Visi :
Ceiling :
>= 8 km
>= 3000ft
5 to 8 km
1000 to 3000 ft
1500m to 5 km
500 to 1000 ft
800 to 1500m
200 to 500 ft
< 800m
< 200 ft
Symbols :   Thunderstorms  Fog  Heavy snow  Heavy precipitations  Wind > 20 kt






- Airport Elevation : 660 ft
- IATA code : PIA


KPIA - Greater Peoria Regional

CURRENT METAR :
  • 141054Z 00000KT 10SM CLR 01/M03 A3018 RMK AO2 SLP222 T00111028 $

EXPIRED METARs :
  • 140954Z 00000KT 10SM CLR 03/M03 A3017 RMK AO2 SLP221 T00281033 $
  • 140854Z 00000KT 10SM CLR 03/M03 A3018 RMK AO2 SLP224 T00281033 50004 $

TAF KPIA
Valid from the 14 at 12:00 until the 15 at 12:00 UTC


141120Z 1412/1512 VRB03KT P6SM SKC
FM141600 29012G18KT P6SM FEW250
FM150100 32010KT P6SM BKN060
KZAU FIR / North America



MET'MAP, your aeronautical weather chart ! - Copyright ORBIFLY December 2007 - Disclaimer

ORBIFLY MET'MAP TEAM :

Programming & Development : Alexandra Zaïnal
Concept & original design : Baudouin d'Aumeries
Assistance for programming : Marc-Olivier Méhu
Technical & hardware support : Manuel Goepfert

Contact : metmap@orbifly.com




SOURCES & CREDITS :

   NOAA       Earth
Advisory